Terminal Aerodrome Forecast
Issued by NWS Pittsburgh, PA

Current Version | Previous Version | Graphics & Text | Print | Product List | Glossary On
Versions: 1 2 3 4 5 6 7 8 9 10 11 12 13 14 15 16 17 18 19 20 21 22 23 24 25 26 27
693
FTUS41 KPBZ 202324
TAFPIT
TAF
KPIT 202324Z 2100/2206 21010KT P6SM SCT050
     FM210700 20006KT P6SM -SHRA OVC025
     FM210900 20006KT 5SM -SHRA OVC010
     FM211200 23006KT P6SM OVC010
     FM211600 27008KT P6SM BKN015
     FM211800 27009KT P6SM SCT050
     FM212100 28010KT P6SM SCT250=

USA.gov is the U.S. government's official web portal to all federal, state and local government web resources and services.